sensor_id;sensor_type;location;lat;lon;timestamp;pressure;altitude;pressure_sealevel;temperature;humidity
64713;BME280;51140;45.340;5.980;2023-04-08T00:01:04;97629.78;;;4.40;100.00
64713;BME280;51140;45.340;5.980;2023-04-08T00:03:29;97625.63;;;4.36;100.00
64713;BME280;51140;45.340;5.980;2023-04-08T00:05:55;97636.66;;;4.39;100.00
64713;BME280;51140;45.340;5.980;2023-04-08T00:08:20;97651.16;;;4.44;100.00
64713;BME280;51140;45.340;5.980;2023-04-08T00:10:46;97649.47;;;4.43;100.00
64713;BME280;51140;45.340;5.980;2023-04-08T00:13:11;97658.84;;;4.45;100.00
64713;BME280;51140;45.340;5.980;2023-04-08T00:15:37;97666.59;;;4.45;100.00
64713;BME280;51140;45.340;5.980;2023-04-08T00:18:02;97677.94;;;4.39;100.00
64713;BME280;51140;45.340;5.980;2023-04-08T00:20:28;97683.06;;;4.41;100.00
64713;BME280;51140;45.340;5.980;2023-04-08T00:22:53;97691.53;;;4.45;100.00
64713;BME280;51140;45.340;5.980;2023-04-08T00:25:19;97697.63;;;4.42;100.00
64713;BME280;51140;45.340;5.980;2023-04-08T00:27:45;97699.38;;;4.42;100.00
64713;BME280;51140;45.340;5.980;2023-04-08T00:30:10;97703.63;;;4.43;100.00
64713;BME280;51140;45.340;5.980;2023-04-08T00:32:36;97700.28;;;4.40;100.00
64713;BME280;51140;45.340;5.980;2023-04-08T00:35:02;97704.47;;;4.43;100.00
64713;BME280;51140;45.340;5.980;2023-04-08T00:37:27;97708.91;;;4.38;100.00
64713;BME280;51140;45.340;5.980;2023-04-08T00:39:53;97714.25;;;4.33;100.00
64713;BME280;51140;45.340;5.980;2023-04-08T00:42:19;97718.75;;;4.27;100.00
64713;BME280;51140;45.340;5.980;2023-04-08T00:44:45;97724.91;;;4.23;100.00
64713;BME280;51140;45.340;5.980;2023-04-08T00:47:12;97720.66;;;4.22;100.00
64713;BME280;51140;45.340;5.980;2023-04-08T00:49:37;97718.03;;;4.23;100.00
64713;BME280;51140;45.340;5.980;2023-04-08T00:52:03;97725.88;;;4.20;100.00
64713;BME280;51140;45.340;5.980;2023-04-08T00:54:30;97737.97;;;4.18;100.00
64713;BME280;51140;45.340;5.980;2023-04-08T00:56:56;97738.06;;;4.15;100.00
64713;BME280;51140;45.340;5.980;2023-04-08T00:59:24;97732.13;;;4.13;100.00
64713;BME280;51140;45.340;5.980;2023-04-08T01:01:57;97728.84;;;4.08;100.00
64713;BME280;51140;45.340;5.980;2023-04-08T01:07:14;97721.38;;;4.00;100.00
64713;BME280;51140;45.340;5.980;2023-04-08T01:09:46;97720.50;;;4.00;100.00
64713;BME280;51140;45.340;5.980;2023-04-08T01:12:18;97725.63;;;4.01;100.00
64713;BME280;51140;45.340;5.980;2023-04-08T01:14:45;97734.31;;;3.97;100.00
64713;BME280;51140;45.340;5.980;2023-04-08T01:17:11;97733.53;;;3.95;100.00
64713;BME280;51140;45.340;5.980;2023-04-08T01:19:40;97729.09;;;4.00;100.00
64713;BME280;51140;45.340;5.980;2023-04-08T01:22:22;97734.22;;;4.02;100.00
64713;BME280;51140;45.340;5.980;2023-04-08T01:24:58;97733.53;;;3.95;100.00
64713;BME280;51140;45.340;5.980;2023-04-08T01:27:27;97727.88;;;3.84;100.00
64713;BME280;51140;45.340;5.980;2023-04-08T01:29:54;97710.88;;;3.78;100.00
64713;BME280;51140;45.340;5.980;2023-04-08T01:32:20;97693.75;;;3.77;100.00
64713;BME280;51140;45.340;5.980;2023-04-08T01:34:46;97679.88;;;3.82;100.00
64713;BME280;51140;45.340;5.980;2023-04-08T01:37:13;97663.56;;;3.81;100.00
64713;BME280;51140;45.340;5.980;2023-04-08T01:39:40;97656.88;;;3.75;100.00
64713;BME280;51140;45.340;5.980;2023-04-08T01:42:07;97638.97;;;3.72;100.00
64713;BME280;51140;45.340;5.980;2023-04-08T01:44:34;97630.44;;;3.70;100.00
64713;BME280;51140;45.340;5.980;2023-04-08T01:47:00;97611.63;;;3.68;100.00
64713;BME280;51140;45.340;5.980;2023-04-08T01:49:27;97604.88;;;3.64;100.00
64713;BME280;51140;45.340;5.980;2023-04-08T01:51:54;97591.00;;;3.68;100.00
64713;BME280;51140;45.340;5.980;2023-04-08T01:54:21;97590.44;;;3.60;100.00
64713;BME280;51140;45.340;5.980;2023-04-08T01:56:46;97581.19;;;3.53;100.00
64713;BME280;51140;45.340;5.980;2023-04-08T01:59:14;97577.09;;;3.47;100.00
64713;BME280;51140;45.340;5.980;2023-04-08T02:01:43;97569.72;;;3.37;100.00
64713;BME280;51140;45.340;5.980;2023-04-08T02:04:09;97571.41;;;3.38;100.00
64713;BME280;51140;45.340;5.980;2023-04-08T02:06:35;97566.09;;;3.42;100.00
64713;BME280;51140;45.340;5.980;2023-04-08T02:09:02;97564.84;;;3.54;100.00
64713;BME280;51140;45.340;5.980;2023-04-08T02:11:28;97562.78;;;3.65;100.00
64713;BME280;51140;45.340;5.980;2023-04-08T02:13:53;97557.41;;;3.71;100.00
64713;BME280;51140;45.340;5.980;2023-04-08T02:16:28;97549.44;;;3.79;100.00
64713;BME280;51140;45.340;5.980;2023-04-08T02:19:03;97545.97;;;3.80;100.00
64713;BME280;51140;45.340;5.980;2023-04-08T02:21:37;97539.81;;;3.84;100.00
64713;BME280;51140;45.340;5.980;2023-04-08T02:24:09;97548.25;;;3.88;100.00
64713;BME280;51140;45.340;5.980;2023-04-08T02:26:38;97554.41;;;3.84;100.00
64713;BME280;51140;45.340;5.980;2023-04-08T02:29:04;97552.69;;;3.84;100.00
64713;BME280;51140;45.340;5.980;2023-04-08T02:31:31;97564.78;;;3.82;100.00
64713;BME280;51140;45.340;5.980;2023-04-08T02:33:58;97575.09;;;3.82;100.00
64713;BME280;51140;45.340;5.980;2023-04-08T02:36:24;97575.25;;;3.77;100.00
64713;BME280;51140;45.340;5.980;2023-04-08T02:38:50;97587.34;;;3.75;100.00
64713;BME280;51140;45.340;5.980;2023-04-08T02:41:16;97598.59;;;3.73;100.00
64713;BME280;51140;45.340;5.980;2023-04-08T02:43:41;97601.59;;;3.59;100.00
64713;BME280;51140;45.340;5.980;2023-04-08T02:46:07;97599.78;;;3.63;100.00
64713;BME280;51140;45.340;5.980;2023-04-08T02:48:34;97603.19;;;3.63;100.00
64713;BME280;51140;45.340;5.980;2023-04-08T02:51:00;97594.63;;;3.63;100.00
64713;BME280;51140;45.340;5.980;2023-04-08T02:53:25;97603.31;;;3.60;100.00
64713;BME280;51140;45.340;5.980;2023-04-08T02:55:50;97601.59;;;3.59;100.00
64713;BME280;51140;45.340;5.980;2023-04-08T02:58:16;97593.13;;;3.56;100.00
64713;BME280;51140;45.340;5.980;2023-04-08T03:00:41;97593.22;;;3.53;100.00
64713;BME280;51140;45.340;5.980;2023-04-08T03:03:07;97601.00;;;3.51;100.00
64713;BME280;51140;45.340;5.980;2023-04-08T03:05:32;97596.34;;;3.36;100.00
64713;BME280;51140;45.340;5.980;2023-04-08T03:07:58;97581.00;;;3.33;100.00
64713;BME280;51140;45.340;5.980;2023-04-08T03:10:23;97577.84;;;3.25;100.00
64713;BME280;51140;45.340;5.980;2023-04-08T03:12:49;97582.03;;;3.27;100.00
64713;BME280;51140;45.340;5.980;2023-04-08T03:15:15;97588.28;;;3.19;100.00
64713;BME280;51140;45.340;5.980;2023-04-08T03:17:40;97585.81;;;3.15;100.00
64713;BME280;51140;45.340;5.980;2023-04-08T03:20:06;97593.63;;;3.12;100.00
64713;BME280;51140;45.340;5.980;2023-04-08T03:22:32;97589.47;;;3.08;100.00
64713;BME280;51140;45.340;5.980;2023-04-08T03:24:58;97582.84;;;3.01;100.00
64713;BME280;51140;45.340;5.980;2023-04-08T03:27:23;97570.88;;;3.00;100.00
64713;BME280;51140;45.340;5.980;2023-04-08T03:29:48;97565.81;;;2.97;100.00
64713;BME280;51140;45.340;5.980;2023-04-08T03:32:14;97568.38;;;2.97;100.00
64713;BME280;51140;45.340;5.980;2023-04-08T03:34:39;97568.44;;;2.96;100.00
64713;BME280;51140;45.340;5.980;2023-04-08T03:37:05;97551.97;;;3.01;100.00
64713;BME280;51140;45.340;5.980;2023-04-08T03:39:32;97558.03;;;2.99;100.00
64713;BME280;51140;45.340;5.980;2023-04-08T03:41:57;97548.84;;;2.92;100.00
64713;BME280;51140;45.340;5.980;2023-04-08T03:44:25;97527.56;;;2.87;100.00
64713;BME280;51140;45.340;5.980;2023-04-08T03:46:50;97527.63;;;2.85;100.00
64713;BME280;51140;45.340;5.980;2023-04-08T03:49:15;97532.84;;;2.82;100.00
64713;BME280;51140;45.340;5.980;2023-04-08T03:51:41;97522.50;;;2.83;100.00
64713;BME280;51140;45.340;5.980;2023-04-08T03:54:06;97537.81;;;2.88;100.00
64713;BME280;51140;45.340;5.980;2023-04-08T03:56:32;97537.94;;;2.83;100.00
64713;BME280;51140;45.340;5.980;2023-04-08T03:58:57;97538.09;;;2.77;100.00
64713;BME280;51140;45.340;5.980;2023-04-08T04:01:22;97539.13;;;2.72;100.00
64713;BME280;51140;45.340;5.980;2023-04-08T04:03:48;97533.00;;;2.76;100.00
64713;BME280;51140;45.340;5.980;2023-04-08T04:06:13;97535.50;;;2.79;100.00
64713;BME280;51140;45.340;5.980;2023-04-08T04:08:38;97528.75;;;2.75;100.00
64713;BME280;51140;45.340;5.980;2023-04-08T04:11:04;97532.22;;;2.74;100.00
64713;BME280;51140;45.340;5.980;2023-04-08T04:13:29;97534.00;;;2.72;100.00
64713;BME280;51140;45.340;5.980;2023-04-08T04:15:54;97540.97;;;2.68;100.00
64713;BME280;51140;45.340;5.980;2023-04-08T04:18:21;97529.97;;;2.63;100.00
64713;BME280;51140;45.340;5.980;2023-04-08T04:20:47;97523.09;;;2.64;100.00
64713;BME280;51140;45.340;5.980;2023-04-08T04:23:12;97533.47;;;2.61;100.00
64713;BME280;51140;45.340;5.980;2023-04-08T04:25:40;97529.94;;;2.65;100.00
64713;BME280;51140;45.340;5.980;2023-04-08T04:28:05;97527.25;;;2.68;100.00
64713;BME280;51140;45.340;5.980;2023-04-08T04:30:32;97521.94;;;2.74;100.00
64713;BME280;51140;45.340;5.980;2023-04-08T04:32:57;97526.28;;;2.72;100.00
64713;BME280;51140;45.340;5.980;2023-04-08T04:35:22;97524.97;;;2.59;100.00
64713;BME280;51140;45.340;5.980;2023-04-08T04:37:48;97528.47;;;2.56;100.00
64713;BME280;51140;45.340;5.980;2023-04-08T04:40:16;97523.47;;;2.51;100.00
64713;BME280;51140;45.340;5.980;2023-04-08T04:42:41;97485.06;;;2.47;100.00
64713;BME280;51140;45.340;5.980;2023-04-08T04:45:07;97499.53;;;2.49;100.00
64713;BME280;51140;45.340;5.980;2023-04-08T04:47:34;97497.03;;;2.48;100.00
64713;BME280;51140;45.340;5.980;2023-04-08T04:49:59;97506.38;;;2.50;100.00
64713;BME280;51140;45.340;5.980;2023-04-08T04:52:25;97507.06;;;2.56;100.00
64713;BME280;51140;45.340;5.980;2023-04-08T04:54:50;97495.84;;;2.58;100.00
64713;BME280;51140;45.340;5.980;2023-04-08T04:57:16;97517.16;;;2.62;100.00
64713;BME280;51140;45.340;5.980;2023-04-08T04:59:41;97511.13;;;2.63;100.00
64713;BME280;51140;45.340;5.980;2023-04-08T05:02:06;97516.97;;;2.68;100.00
64713;BME280;51140;45.340;5.980;2023-04-08T05:04:32;97516.13;;;2.67;100.00
64713;BME280;51140;45.340;5.980;2023-04-08T05:07:00;97525.53;;;2.68;100.00
64713;BME280;51140;45.340;5.980;2023-04-08T05:09:26;97511.88;;;2.66;100.00
64713;BME280;51140;45.340;5.980;2023-04-08T05:11:51;97517.72;;;2.71;100.00
64713;BME280;51140;45.340;5.980;2023-04-08T05:14:16;97516.78;;;2.74;100.00
64713;BME280;51140;45.340;5.980;2023-04-08T05:16:41;97520.03;;;2.80;100.00
64713;BME280;51140;45.340;5.980;2023-04-08T05:19:07;97521.69;;;2.83;100.00
64713;BME280;51140;45.340;5.980;2023-04-08T05:21:32;97525.00;;;2.87;100.00
64713;BME280;51140;45.340;5.980;2023-04-08T05:23:58;97525.69;;;2.92;100.00
64713;BME280;51140;45.340;5.980;2023-04-08T05:26:23;97528.56;;;2.82;100.00
64713;BME280;51140;45.340;5.980;2023-04-08T05:28:49;97529.84;;;2.68;100.00
64713;BME280;51140;45.340;5.980;2023-04-08T05:31:18;97537.69;;;2.63;100.00
64713;BME280;51140;45.340;5.980;2023-04-08T05:33:44;97537.75;;;2.62;100.00
64713;BME280;51140;45.340;5.980;2023-04-08T05:36:11;97537.84;;;2.59;100.00
64713;BME280;51140;45.340;5.980;2023-04-08T05:38:36;97546.44;;;2.58;100.00
64713;BME280;51140;45.340;5.980;2023-04-08T05:41:02;97548.88;;;2.62;100.00
64713;BME280;51140;45.340;5.980;2023-04-08T05:43:28;97548.59;;;2.71;100.00
64713;BME280;51140;45.340;5.980;2023-04-08T05:45:53;97548.50;;;2.74;100.00
64713;BME280;51140;45.340;5.980;2023-04-08T05:48:18;97561.00;;;2.87;100.00
64713;BME280;51140;45.340;5.980;2023-04-08T05:50:44;97562.50;;;2.94;100.00
64713;BME280;51140;45.340;5.980;2023-04-08T05:53:09;97561.38;;;3.02;100.00
64713;BME280;51140;45.340;5.980;2023-04-08T05:55:34;97568.88;;;2.82;100.00
64713;BME280;51140;45.340;5.980;2023-04-08T05:58:00;97572.19;;;2.86;100.00
64713;BME280;51140;45.340;5.980;2023-04-08T06:00:26;97573.88;;;2.87;100.00
64713;BME280;51140;45.340;5.980;2023-04-08T06:02:51;97570.59;;;2.81;100.00
64713;BME280;51140;45.340;5.980;2023-04-08T06:05:17;97583.41;;;2.83;100.00
64713;BME280;51140;45.340;5.980;2023-04-08T06:07:43;97582.53;;;2.84;100.00
64713;BME280;51140;45.340;5.980;2023-04-08T06:10:09;97587.56;;;2.87;100.00
64713;BME280;51140;45.340;5.980;2023-04-08T06:12:35;97587.19;;;2.99;100.00
64713;BME280;51140;45.340;5.980;2023-04-08T06:15:03;97579.97;;;3.10;100.00
64713;BME280;51140;45.340;5.980;2023-04-08T06:17:28;97591.44;;;3.00;100.00
64713;BME280;51140;45.340;5.980;2023-04-08T06:19:53;97599.97;;;3.02;100.00
64713;BME280;51140;45.340;5.980;2023-04-08T06:22:19;97596.69;;;2.97;100.00
64713;BME280;51140;45.340;5.980;2023-04-08T06:24:46;97600.06;;;2.99;100.00
64713;BME280;51140;45.340;5.980;2023-04-08T06:27:11;97605.09;;;3.02;100.00
64713;BME280;51140;45.340;5.980;2023-04-08T06:29:37;97606.88;;;3.00;100.00
64713;BME280;51140;45.340;5.980;2023-04-08T06:32:02;97604.22;;;3.03;100.00
64713;BME280;51140;45.340;5.980;2023-04-08T06:34:28;97605.00;;;3.05;100.00
64713;BME280;51140;45.340;5.980;2023-04-08T06:36:53;97611.97;;;3.02;100.00
64713;BME280;51140;45.340;5.980;2023-04-08T06:39:18;97609.47;;;3.00;100.00
64713;BME280;51140;45.340;5.980;2023-04-08T06:41:45;97614.47;;;3.05;100.00
64713;BME280;51140;45.340;5.980;2023-04-08T06:44:10;97619.59;;;3.05;100.00
64713;BME280;51140;45.340;5.980;2023-04-08T06:46:36;97617.19;;;3.00;100.00
64713;BME280;51140;45.340;5.980;2023-04-08T06:49:01;97627.38;;;3.03;100.00
64713;BME280;51140;45.340;5.980;2023-04-08T06:51:28;97627.28;;;3.06;100.00
64713;BME280;51140;45.340;5.980;2023-04-08T06:53:54;97631.53;;;3.07;100.00
64713;BME280;51140;45.340;5.980;2023-04-08T06:56:19;97633.91;;;3.13;100.00
64713;BME280;51140;45.340;5.980;2023-04-08T06:58:46;97630.06;;;3.28;100.00
64713;BME280;51140;45.340;5.980;2023-04-08T07:01:12;97629.03;;;3.34;100.00
64713;BME280;51140;45.340;5.980;2023-04-08T07:03:37;97636.00;;;3.30;100.00
64713;BME280;51140;45.340;5.980;2023-04-08T07:06:02;97631.69;;;3.31;100.00
64713;BME280;51140;45.340;5.980;2023-04-08T07:08:28;97630.75;;;3.33;100.00
64713;BME280;51140;45.340;5.980;2023-04-08T07:10:53;97624.53;;;3.40;100.00
64713;BME280;51140;45.340;5.980;2023-04-08T07:13:19;97620.72;;;3.52;100.00
64713;BME280;51140;45.340;5.980;2023-04-08T07:15:44;97621.34;;;3.60;100.00
64713;BME280;51140;45.340;5.980;2023-04-08T07:18:10;97617.75;;;3.64;100.00
64713;BME280;51140;45.340;5.980;2023-04-08T07:20:36;97609.03;;;3.68;100.00
64713;BME280;51140;45.340;5.980;2023-04-08T07:23:11;97607.88;;;3.77;100.00
64713;BME280;51140;45.340;5.980;2023-04-08T07:25:45;97601.69;;;3.83;100.00
64713;BME280;51140;45.340;5.980;2023-04-08T07:28:16;97595.47;;;3.88;100.00
64713;BME280;51140;45.340;5.980;2023-04-08T07:30:44;97589.44;;;3.89;100.00
64713;BME280;51140;45.340;5.980;2023-04-08T07:33:10;97590.16;;;3.93;100.00
64713;BME280;51140;45.340;5.980;2023-04-08T07:35:35;97582.22;;;4.00;100.00
64713;BME280;51140;45.340;5.980;2023-04-08T07:38:02;97580.81;;;4.15;100.00
64713;BME280;51140;45.340;5.980;2023-04-08T07:40:27;97588.28;;;4.23;100.00
64713;BME280;51140;45.340;5.980;2023-04-08T07:42:57;97587.66;;;4.39;100.00
64713;BME280;51140;45.340;5.980;2023-04-08T07:45:25;97589.28;;;4.44;100.00
64713;BME280;51140;45.340;5.980;2023-04-08T07:47:50;97585.56;;;4.51;100.00
64713;BME280;51140;45.340;5.980;2023-04-08T07:50:16;97583.09;;;4.48;100.00
64713;BME280;51140;45.340;5.980;2023-04-08T07:52:41;97584.66;;;4.52;100.00
64713;BME280;51140;45.340;5.980;2023-04-08T07:55:07;97584.38;;;4.59;100.00
64713;BME280;51140;45.340;5.980;2023-04-08T07:57:32;97554.72;;;5.15;100.00
64713;BME280;51140;45.340;5.980;2023-04-08T07:59:58;97553.50;;;5.45;100.00
64713;BME280;51140;45.340;5.980;2023-04-08T08:02:23;97556.53;;;5.77;100.00
64713;BME280;51140;45.340;5.980;2023-04-08T08:04:49;97576.69;;;5.89;100.00
64713;BME280;51140;45.340;5.980;2023-04-08T08:07:14;97595.38;;;6.36;100.00
64713;BME280;51140;45.340;5.980;2023-04-08T08:09:39;97620.81;;;6.47;100.00
64713;BME280;51140;45.340;5.980;2023-04-08T08:12:05;97704.38;;;6.49;100.00
64713;BME280;51140;45.340;5.980;2023-04-08T08:14:30;97735.16;;;8.77;100.00
64713;BME280;51140;45.340;5.980;2023-04-08T08:16:55;97853.78;;;11.48;100.00
64713;BME280;51140;45.340;5.980;2023-04-08T08:19:21;98070.28;;;13.36;100.00
64713;BME280;51140;45.340;5.980;2023-04-08T08:21:47;98261.91;;;18.10;100.00
64713;BME280;51140;45.340;5.980;2023-04-08T08:24:12;98394.69;;;20.01;100.00
64713;BME280;51140;45.340;5.980;2023-04-08T08:26:38;98471.16;;;19.62;100.00
64713;BME280;51140;45.340;5.980;2023-04-08T08:29:03;98496.66;;;18.20;100.00
64713;BME280;51140;45.340;5.980;2023-04-08T08:31:29;98489.88;;;19.27;100.00
64713;BME280;51140;45.340;5.980;2023-04-08T08:33:55;98441.50;;;23.61;100.00
64713;BME280;51140;45.340;5.980;2023-04-08T08:36:20;98389.56;;;26.71;100.00
64713;BME280;51140;45.340;5.980;2023-04-08T08:38:46;98339.66;;;29.58;100.00
64713;BME280;51140;45.340;5.980;2023-04-08T08:41:11;98320.75;;;31.16;100.00
64713;BME280;51140;45.340;5.980;2023-04-08T08:43:37;98288.75;;;33.20;93.40
64713;BME280;51140;45.340;5.980;2023-04-08T08:46:02;98276.13;;;34.55;83.98
64713;BME280;51140;45.340;5.980;2023-04-08T08:48:28;98289.91;;;33.06;82.98
64713;BME280;51140;45.340;5.980;2023-04-08T08:50:54;98275.97;;;34.80;81.16
64713;BME280;51140;45.340;5.980;2023-04-08T08:53:19;98259.00;;;36.08;74.68
64713;BME280;51140;45.340;5.980;2023-04-08T08:55:45;98275.75;;;35.23;75.58
64713;BME280;51140;45.340;5.980;2023-04-08T08:58:10;98260.19;;;36.00;71.78
64713;BME280;51140;45.340;5.980;2023-04-08T09:00:36;98252.25;;;36.51;71.82
64713;BME280;51140;45.340;5.980;2023-04-08T09:05:59;98267.31;;;36.30;69.65
64713;BME280;51140;45.340;5.980;2023-04-08T09:08:31;98267.84;;;36.03;69.65
64713;BME280;51140;45.340;5.980;2023-04-08T09:13:38;98286.88;;;34.92;71.87
64713;BME280;51140;45.340;5.980;2023-04-08T09:18:31;98267.63;;;36.45;67.58
64713;BME280;51140;45.340;5.980;2023-04-08T09:21:01;98256.78;;;36.45;62.13
64713;BME280;51140;45.340;5.980;2023-04-08T09:23:46;98251.97;;;37.26;62.39
64713;BME280;51140;45.340;5.980;2023-04-08T09:26:15;98240.38;;;37.30;58.98
64713;BME280;51140;45.340;5.980;2023-04-08T09:28:43;98250.34;;;37.25;59.96
64713;BME280;51140;45.340;5.980;2023-04-08T09:31:20;98277.63;;;35.81;65.59
64713;BME280;51140;45.340;5.980;2023-04-08T09:33:47;98262.97;;;36.17;64.39
64713;BME280;51140;45.340;5.980;2023-04-08T09:36:14;98230.72;;;37.06;57.74
64713;BME280;51140;45.340;5.980;2023-04-08T09:38:40;98260.22;;;35.30;61.46
64713;BME280;51140;45.340;5.980;2023-04-08T09:41:06;98260.09;;;35.48;60.00
64713;BME280;51140;45.340;5.980;2023-04-08T09:43:37;98259.88;;;36.25;59.97
64713;BME280;51140;45.340;5.980;2023-04-08T09:46:10;98258.81;;;35.86;63.08
64713;BME280;51140;45.340;5.980;2023-04-08T09:48:48;98267.28;;;34.48;65.27
64713;BME280;51140;45.340;5.980;2023-04-08T09:51:16;98262.41;;;34.38;60.33
64713;BME280;51140;45.340;5.980;2023-04-08T09:53:47;98245.63;;;35.55;58.74
64713;BME280;51140;45.340;5.980;2023-04-08T09:56:14;98271.34;;;34.69;65.32
64713;BME280;51140;45.340;5.980;2023-04-08T09:58:50;98276.69;;;34.27;65.13
64713;BME280;51140;45.340;5.980;2023-04-08T10:01:21;98254.81;;;35.65;59.06
64713;BME280;51140;45.340;5.980;2023-04-08T10:03:53;98251.75;;;35.50;59.21
64713;BME280;51140;45.340;5.980;2023-04-08T10:06:18;98291.41;;;33.51;67.06
64713;BME280;51140;45.340;5.980;2023-04-08T10:08:46;98273.69;;;33.99;60.42
64713;BME280;51140;45.340;5.980;2023-04-08T10:11:13;98280.44;;;33.71;65.06
64713;BME280;51140;45.340;5.980;2023-04-08T10:13:39;98290.03;;;33.17;66.33
64713;BME280;51140;45.340;5.980;2023-04-08T10:16:22;98310.00;;;31.29;67.42
64713;BME280;51140;45.340;5.980;2023-04-08T10:18:49;98300.13;;;32.14;67.26
64713;BME280;51140;45.340;5.980;2023-04-08T10:21:36;98295.78;;;32.64;70.38
64713;BME280;51140;45.340;5.980;2023-04-08T10:24:09;98287.16;;;32.87;65.27
64713;BME280;51140;45.340;5.980;2023-04-08T10:31:53;98317.75;;;30.78;73.04
64713;BME280;51140;45.340;5.980;2023-04-08T10:34:23;98328.78;;;30.01;73.50
64713;BME280;51140;45.340;5.980;2023-04-08T10:36:52;98334.97;;;30.01;76.49
64713;BME280;51140;45.340;5.980;2023-04-08T10:39:19;98304.97;;;31.06;71.10
64713;BME280;51140;45.340;5.980;2023-04-08T10:41:47;98328.63;;;29.74;74.77
64713;BME280;51140;45.340;5.980;2023-04-08T10:44:17;98331.31;;;29.74;75.53
64713;BME280;51140;45.340;5.980;2023-04-08T10:46:47;98352.91;;;28.00;81.02
64713;BME280;51140;45.340;5.980;2023-04-08T10:49:13;98365.91;;;26.91;83.26
64713;BME280;51140;45.340;5.980;2023-04-08T10:51:40;98387.88;;;25.35;87.14
64713;BME280;51140;45.340;5.980;2023-04-08T10:54:07;98393.13;;;24.86;95.12
64713;BME280;51140;45.340;5.980;2023-04-08T10:56:34;98409.88;;;24.02;91.80
64713;BME280;51140;45.340;5.980;2023-04-08T10:59:00;98421.06;;;23.08;93.91
64713;BME280;51140;45.340;5.980;2023-04-08T11:01:26;98427.19;;;22.36;96.84
64713;BME280;51140;45.340;5.980;2023-04-08T11:03:52;98414.75;;;22.37;99.76
64713;BME280;51140;45.340;5.980;2023-04-08T11:06:17;98426.84;;;22.22;100.00
64713;BME280;51140;45.340;5.980;2023-04-08T11:08:43;98431.09;;;20.99;100.00
64713;BME280;51140;45.340;5.980;2023-04-08T11:11:09;98424.50;;;20.74;100.00
64713;BME280;51140;45.340;5.980;2023-04-08T11:13:38;98438.41;;;20.56;100.00
64713;BME280;51140;45.340;5.980;2023-04-08T11:16:06;98436.31;;;20.29;100.00
64713;BME280;51140;45.340;5.980;2023-04-08T11:18:39;98448.94;;;19.54;100.00
64713;BME280;51140;45.340;5.980;2023-04-08T11:21:09;98441.31;;;19.39;100.00
64713;BME280;51140;45.340;5.980;2023-04-08T11:23:37;98435.63;;;19.44;100.00
64713;BME280;51140;45.340;5.980;2023-04-08T11:26:03;98439.59;;;18.86;100.00
64713;BME280;51140;45.340;5.980;2023-04-08T11:28:29;98445.38;;;18.46;100.00
64713;BME280;51140;45.340;5.980;2023-04-08T11:30:55;98463.19;;;17.87;100.00
64713;BME280;51140;45.340;5.980;2023-04-08T11:33:24;98456.47;;;17.47;100.00
64713;BME280;51140;45.340;5.980;2023-04-08T11:35:51;98456.34;;;17.84;100.00
64713;BME280;51140;45.340;5.980;2023-04-08T11:38:21;98455.22;;;17.29;100.00
64713;BME280;51140;45.340;5.980;2023-04-08T11:40:53;98460.69;;;17.02;100.00
64713;BME280;51140;45.340;5.980;2023-04-08T11:43:19;98447.69;;;17.36;100.00
64713;BME280;51140;45.340;5.980;2023-04-08T11:45:45;98446.97;;;17.10;100.00
64713;BME280;51140;45.340;5.980;2023-04-08T11:48:12;98457.91;;;16.92;100.00
64713;BME280;51140;45.340;5.980;2023-04-08T11:50:38;98452.31;;;16.35;100.00
64713;BME280;51140;45.340;5.980;2023-04-08T11:53:17;98460.75;;;16.27;100.00
64713;BME280;51140;45.340;5.980;2023-04-08T11:55:46;98460.84;;;16.26;100.00
64713;BME280;51140;45.340;5.980;2023-04-08T11:58:13;98444.75;;;16.30;100.00
64713;BME280;51140;45.340;5.980;2023-04-08T12:00:39;98449.16;;;16.30;100.00
64713;BME280;51140;45.340;5.980;2023-04-08T12:03:05;98454.16;;;16.09;100.00
64713;BME280;51140;45.340;5.980;2023-04-08T12:05:31;98444.16;;;15.89;100.00
64713;BME280;51140;45.340;5.980;2023-04-08T12:07:56;98443.00;;;16.18;100.00
64713;BME280;51140;45.340;5.980;2023-04-08T12:10:22;98438.56;;;16.19;100.00
64713;BME280;51140;45.340;5.980;2023-04-08T12:12:49;98440.88;;;16.23;100.00
64713;BME280;51140;45.340;5.980;2023-04-08T12:15:14;98439.38;;;16.32;100.00
64713;BME280;51140;45.340;5.980;2023-04-08T12:17:40;98426.94;;;16.10;100.00
64713;BME280;51140;45.340;5.980;2023-04-08T12:20:06;98428.47;;;16.25;100.00
64713;BME280;51140;45.340;5.980;2023-04-08T12:22:31;98422.03;;;16.29;100.00
64713;BME280;51140;45.340;5.980;2023-04-08T12:24:57;98425.19;;;16.47;100.00
64713;BME280;51140;45.340;5.980;2023-04-08T12:27:22;98424.66;;;16.42;100.00
64713;BME280;51140;45.340;5.980;2023-04-08T12:29:48;98432.28;;;15.83;100.00
64713;BME280;51140;45.340;5.980;2023-04-08T12:32:14;98416.53;;;15.83;100.00
64713;BME280;51140;45.340;5.980;2023-04-08T12:34:39;98409.34;;;16.23;100.00
64713;BME280;51140;45.340;5.980;2023-04-08T12:37:05;98406.78;;;16.35;100.00
64713;BME280;51140;45.340;5.980;2023-04-08T12:39:30;98410.84;;;16.15;100.00
64713;BME280;51140;45.340;5.980;2023-04-08T12:41:56;98406.19;;;16.18;100.00
64713;BME280;51140;45.340;5.980;2023-04-08T12:44:21;98396.25;;;16.35;100.00
64713;BME280;51140;45.340;5.980;2023-04-08T12:46:47;98398.44;;;16.41;100.00
64713;BME280;51140;45.340;5.980;2023-04-08T12:49:12;98384.06;;;16.34;100.00
64713;BME280;51140;45.340;5.980;2023-04-08T12:51:37;98386.84;;;16.56;100.00
64713;BME280;51140;45.340;5.980;2023-04-08T12:54:04;98386.56;;;16.48;100.00
64713;BME280;51140;45.340;5.980;2023-04-08T12:56:30;98387.59;;;16.58;100.00
64713;BME280;51140;45.340;5.980;2023-04-08T12:58:57;98389.34;;;16.70;100.00
64713;BME280;51140;45.340;5.980;2023-04-08T13:01:22;98375.16;;;16.60;100.00
64713;BME280;51140;45.340;5.980;2023-04-08T13:03:48;98372.38;;;16.50;100.00
64713;BME280;51140;45.340;5.980;2023-04-08T13:06:13;98374.06;;;16.39;100.00
64713;BME280;51140;45.340;5.980;2023-04-08T13:08:39;98382.38;;;16.45;100.00
64713;BME280;51140;45.340;5.980;2023-04-08T13:11:06;98377.22;;;16.44;100.00